Wildrose, North Dakota
Current Conditions -  °F | °C
As of 2:55 AM on Thursday 23 Oct 2014 (Local Time) from KD60 Reporting Station
Clear Clear  
Wind Chill: 29°   Ceiling: Unl
Heat Index: 34°   Visibility: 10mi
Dew Point: 32°   Wind: 6mph
Humidity: 93%   Direction: 250°WSW
Pressure: 29.88"   Gusts: NA
Location:  48.63°N, 103.18°W
Report Text: KD60 230755Z AUTO 25005KT 10SM CLR 01/00 A2988 RMK AO2
Loading
Personal Weather Stations






























Interactive Weather Map New forecast layout! Learn more

10-Day Weather Forecast

Advertisements
Track Severe Weather on mobile